Terminal Aerodrome Forecast
Issued by NWS Atlanta, GA

Home | Current Version | Previous Version | Text Only | Print | Product List | Glossary On
Versions: 1 2 3 4 5 6 7 8 9 10 11 12 13 14 15 16 17 18 19 20 21 22 23 24 25 26 27 28 29 30 31 32 33 34 35 36 37 38
000
FTUS42 KFFC 261344 AAA
TAFATL
TAF AMD
KATL 261344Z 2614/2718 24004KT P6SM SCT060
     FM261700 22007KT P6SM VCSH SCT050 BKN250
     FM262200 22007KT P6SM SCT060
     FM270100 17004KT P6SM SCT080 SCT250
     FM271500 16006KT P6SM SCT050 BKN120=

USA.gov is the U.S. government's official web portal to all federal, state and local government web resources and services.